Time;durP1;ratioP1;P1;durP2;ratioP2;P2;SDS_P1;SDS_P2;PMS_P1;PMS_P2;Temp;Humidity;BMP_temperature;BMP_pressure;BME280_temperature;BME280_humidity;BME280_pressure;Samples;Min_cycle;Max_cycle;Signal;HPM_P1;HPM_P2
2022/09/08 00:01:24;;;;;;;23.80;13.40;;;;;;;7.86;68.92;99815.52;109301;1277;22460;-60
2022/09/08 00:03:51;;;;;;;23.10;13.50;;;;;;;7.83;68.85;99814.52;109454;1274;22437;-60
2022/09/08 00:06:18;;;;;;;;;;;;;;;7.81;69.09;99813.89;109451;1274;22643;-60
2022/09/08 00:08:45;;;;;;;21.60;13.00;;;;;;;7.80;69.10;99812.28;109454;1274;22403;-59
2022/09/08 00:11:17;;;;;;;19.90;12.40;;;;;;;7.78;69.36;99804.44;109412;1274;22350;-59
2022/09/08 00:13:44;;;;;;;23.30;13.40;;;;;;;7.78;69.44;99805.40;109373;1274;22478;-59
2022/09/08 00:16:11;;;;;;;23.50;13.90;;;;;;;7.78;69.68;99809.64;109344;1274;22437;-59
2022/09/08 00:18:39;;;;;;;22.40;13.20;;;;;;;7.80;69.82;99813.20;109257;1274;23419;-59
2022/09/08 00:21:06;;;;;;;23.90;13.90;;;;;;;7.82;69.87;99815.73;109280;1274;22479;-59
2022/09/08 00:23:32;;;;;;;;;;;;;;;7.85;69.92;99816.58;109455;1274;22510;-59
2022/09/08 00:25:59;;;;;;;23.10;12.50;;;;;;;7.88;70.15;99810.73;109410;1274;22460;-60
2022/09/08 00:28:26;;;;;;;24.60;12.20;;;;;;;7.91;70.30;99809.52;109388;1276;22476;-59
2022/09/08 00:30:54;;;;;;;25.80;13.10;;;;;;;7.95;70.11;99812.81;109440;1274;22457;-59
2022/09/08 00:33:22;;;;;;;19.80;13.30;;;;;;;7.99;70.23;99806.71;109428;1275;22458;-59
2022/09/08 00:35:51;;;;;;;19.30;12.30;;;;;;;8.04;70.15;99809.56;109462;1274;22566;-59
2022/09/08 00:38:21;;;;;;;23.00;13.60;;;;;;;8.08;70.08;99808.80;109475;1274;22277;-59
2022/09/08 00:40:49;;;;;;;22.90;13.20;;;;;;;8.13;70.19;99805.50;106471;1274;23206;-59
2022/09/08 00:43:35;;;;;;;24.00;13.10;;;;;;;8.18;70.09;99807.73;109369;1274;23306;-59
2022/09/08 00:46:08;;;;;;;23.00;14.10;;;;;;;8.23;70.03;99800.50;109418;1274;22448;-59
2022/09/08 00:48:38;;;;;;;23.70;14.10;;;;;;;8.26;69.73;99799.23;109428;1274;23287;-60
2022/09/08 00:51:05;;;;;;;25.50;14.30;;;;;;;8.30;69.54;99793.45;109368;1274;23408;-59
2022/09/08 00:53:31;;;;;;;;;;;;;;;8.32;69.47;99791.76;109309;1274;22481;-59
2022/09/08 00:55:58;;;;;;;23.00;13.80;;;;;;;8.34;69.82;99787.95;109434;1274;22506;-59
2022/09/08 00:58:26;;;;;;;26.70;14.40;;;;;;;8.32;69.92;99785.08;109335;1275;22477;-60
2022/09/08 01:00:52;;;;;;;22.40;15.00;;;;;;;8.33;69.82;99784.11;109457;1272;23335;-59
2022/09/08 01:03:19;;;;;;;27.10;14.70;;;;;;;8.34;69.75;99785.39;109418;1274;22526;-59
2022/09/08 01:05:46;;;;;;;;;;;;;;;8.34;69.68;99785.73;109401;1274;23235;-59
2022/09/08 01:14:45;;;;;;;23.40;13.90;;;;;;;8.32;69.97;99780.57;107624;1277;23272;-60
2022/09/08 01:17:25;;;;;;;30.70;14.90;;;;;;;8.34;70.30;99783.23;108818;1279;22432;-60
2022/09/08 01:19:52;;;;;;;31.50;17.30;;;;;;;8.34;70.40;99782.96;108898;1279;22292;-60
2022/09/08 01:22:56;;;;;;;35.10;17.60;;;;;;;8.35;70.73;99784.83;108938;1279;23292;-60
2022/09/08 01:26:06;;;;;;;29.10;17.60;;;;;;;8.36;70.71;99784.67;109008;1278;23251;-60
2022/09/08 01:28:51;;;;;;;33.00;19.00;;;;;;;8.39;70.95;99785.11;108982;1279;23160;-60
2022/09/08 01:31:18;;;;;;;33.50;19.10;;;;;;;8.41;70.82;99785.33;108879;1279;22474;-60
2022/09/08 01:33:44;;;;;;;;;;;;;;;8.44;71.13;99782.85;108798;1279;22507;-60
2022/09/08 01:36:15;;;;;;;29.50;17.40;;;;;;;8.46;71.09;99785.19;105987;1280;25280;-60
2022/09/08 01:38:42;;;;;;;42.30;19.90;;;;;;;8.49;71.29;99782.92;105068;1277;22562;-59
2022/09/08 01:41:35;;;;;;;;;;;;;;;8.52;71.04;99782.31;107039;1268;24088;31
2022/09/08 01:44:02;;;;;;;40.10;21.90;;;;;;;8.55;71.21;99784.02;104621;1282;22569;-60
2022/09/08 01:46:30;;;;;;;41.40;22.30;;;;;;;8.57;71.24;99786.98;104529;1283;22604;-59
2022/09/08 01:49:28;;;;;;;45.70;21.90;;;;;;;8.60;71.21;99781.30;107602;1270;22598;-60
2022/09/08 01:51:55;;;;;;;42.70;21.30;;;;;;;8.64;71.18;99781.44;104819;1280;22720;-60
2022/09/08 01:54:21;;;;;;;40.30;22.90;;;;;;;8.66;71.31;99778.22;104697;1280;22569;-60
2022/09/08 01:56:48;;;;;;;40.90;21.30;;;;;;;8.68;71.66;99776.14;104821;1280;25283;-60
2022/09/08 01:59:15;;;;;;;41.30;23.60;;;;;;;8.70;71.47;99777.88;105766;1276;22721;-60
2022/09/08 02:01:42;;;;;;;;;;;;;;;8.72;71.38;99780.30;104998;1280;22566;-60
2022/09/08 02:04:08;;;;;;;40.00;21.00;;;;;;;8.73;71.49;99783.70;105013;1280;22689;-60
2022/09/08 02:06:35;;;;;;;38.30;21.90;;;;;;;8.74;71.40;99786.54;105106;1280;22619;-60
2022/09/08 02:12:12;;;;;;;36.40;21.00;;;;;;;8.76;71.55;99777.04;104650;1281;23962;-59
2022/09/08 02:14:38;;;;;;;43.80;23.30;;;;;;;8.77;71.71;99774.70;104589;1280;22573;-60
2022/09/08 02:17:05;;;;;;;;;;;;;;;8.76;71.63;99771.98;104581;1281;22557;-59
2022/09/08 02:19:32;;;;;;;45.10;22.40;;;;;;;8.76;71.44;99770.83;104618;1282;25358;-60
2022/09/08 02:21:58;;;;;;;44.10;20.90;;;;;;;8.75;71.43;99767.38;104573;1281;22564;-59
2022/09/08 02:24:25;;;;;;;48.60;23.10;;;;;;;8.73;71.46;99767.78;104548;1282;22633;-59
2022/09/08 02:26:52;;;;;;;;;;;;;;;8.71;71.16;99766.53;104566;1281;22720;-59
2022/09/08 02:29:19;;;;;;;39.40;20.80;;;;;;;8.71;70.73;99764.19;104683;1281;24234;-59
2022/09/08 02:31:45;;;;;;;40.90;22.80;;;;;;;8.71;70.44;99765.40;104367;1281;22590;-60
2022/09/08 02:34:12;;;;;;;37.10;21.20;;;;;;;8.67;70.40;99764.81;104550;1281;25788;-59
2022/09/08 02:36:39;;;;;;;43.20;22.40;;;;;;;8.62;70.28;99760.59;104587;1281;22569;-59
2022/09/08 02:39:06;;;;;;;45.00;23.00;;;;;;;8.58;70.35;99763.98;104603;1280;22506;-60
2022/09/08 02:41:33;;;;;;;39.30;21.70;;;;;;;8.52;70.05;99764.06;104560;1281;22704;-60
2022/09/08 02:44:00;;;;;;;39.90;21.30;;;;;;;8.45;70.17;99765.88;104837;1281;22718;-60
2022/09/08 02:46:26;;;;;;;42.80;22.90;;;;;;;8.37;70.10;99769.39;104858;1281;23203;-61
2022/09/08 02:48:53;;;;;;;41.40;21.80;;;;;;;8.32;70.29;99771.55;104954;1280;22649;-60
2022/09/08 02:51:20;;;;;;;37.10;21.40;;;;;;;8.26;70.03;99770.13;104940;1281;24291;-60
2022/09/08 02:53:47;;;;;;;;;;;;;;;8.17;69.99;99774.38;104860;1283;24320;-60
2022/09/08 02:56:14;;;;;;;40.30;21.40;;;;;;;8.07;69.90;99777.14;104906;1281;22748;-60
2022/09/08 03:02:02;;;;;;;36.10;21.00;;;;;;;7.82;70.20;99784.39;103342;1279;22760;-60
2022/09/08 03:04:28;;;;;;;40.80;21.30;;;;;;;7.73;70.25;99783.80;104832;1281;22592;-61
2022/09/08 03:06:55;;;;;;;;;;;;;;;7.66;71.00;99781.21;104784;1281;22552;-60
2022/09/08 03:09:22;;;;;;;39.20;19.60;;;;;;;7.60;71.08;99782.44;104788;1281;23194;-61
2022/09/08 03:11:49;;;;;;;35.50;20.00;;;;;;;7.58;71.75;99779.71;104765;1281;23077;-61
2022/09/08 03:14:15;;;;;;;35.00;19.80;;;;;;;7.57;72.18;99781.60;104757;1281;23124;-58
2022/09/08 03:16:44;;;;;;;38.10;20.30;;;;;;;7.57;72.29;99782.98;104744;1282;22645;-59
2022/09/08 03:19:11;;;;;;;37.80;19.50;;;;;;;7.57;72.51;99785.35;104756;1281;23991;-60
2022/09/08 03:21:37;;;;;;;37.00;19.70;;;;;;;7.59;72.35;99787.33;104893;1281;22557;-60
2022/09/08 03:24:04;;;;;;;41.70;20.40;;;;;;;7.60;72.46;99786.02;104720;1281;23187;-61
2022/09/08 03:26:34;;;;;;;36.80;19.80;;;;;;;7.61;72.73;99789.52;105601;1282;25836;-60
2022/09/08 03:29:01;;;;;;;37.80;20.20;;;;;;;7.61;72.69;99790.21;104891;1281;25306;-59
2022/09/08 03:31:28;;;;;;;34.90;19.90;;;;;;;7.61;72.92;99789.55;104907;1279;25376;-59
2022/09/08 03:33:55;;;;;;;;;;;;;;;7.61;72.73;99789.30;104956;1280;22599;-60
2022/09/08 03:36:22;;;;;;;37.60;19.20;;;;;;;7.62;72.66;99787.04;104923;1281;22568;-59
2022/09/08 03:38:55;;;;;;;;;;;;;;;7.62;72.59;99789.80;105959;1281;22541;-59
2022/09/08 03:41:22;;;;;;;35.80;18.60;;;;;;;7.60;72.49;99786.89;106152;1270;24114;-60
2022/09/08 03:43:49;;;;;;;40.60;18.70;;;;;;;7.58;72.50;99786.83;104592;1279;25029;-60
2022/09/08 03:46:16;;;;;;;34.10;18.50;;;;;;;7.58;72.62;99781.89;104974;1280;22560;-59
2022/09/08 03:48:43;;;;;;;36.60;19.30;;;;;;;7.55;72.52;99781.00;108894;1279;22689;-60
2022/09/08 03:51:25;;;;;;;35.40;19.30;;;;;;;7.53;72.61;99780.98;108784;1279;22593;-60
2022/09/08 03:53:53;;;;;;;37.20;18.80;;;;;;;7.51;72.62;99780.43;108952;1279;22451;-59
2022/09/08 03:56:20;;;;;;;32.40;18.00;;;;;;;7.53;72.70;99778.70;108954;1280;22445;-60
2022/09/08 03:58:47;;;;;;;31.50;19.00;;;;;;;7.53;72.64;99776.65;108565;1281;22523;-59
2022/09/08 04:01:17;;;;;;;35.30;19.30;;;;;;;7.54;72.57;99771.38;107765;1270;25399;-59
2022/09/08 04:03:45;;;;;;;35.20;18.00;;;;;;;7.55;72.44;99768.61;108964;1280;22669;-59
2022/09/08 04:06:15;;;;;;;29.10;18.10;;;;;;;7.56;72.83;99769.42;109043;1278;23276;-59
2022/09/08 04:08:46;;;;;;;36.10;18.70;;;;;;;7.62;72.78;99772.44;106391;1279;25399;-60
2022/09/08 04:11:13;;;;;;;41.70;20.20;;;;;;;7.72;72.91;99771.34;104970;1279;25402;-60
2022/09/08 04:13:40;;;;;;;36.40;19.20;;;;;;;7.84;72.67;99768.48;104750;1280;24674;-59
2022/09/08 04:16:07;;;;;;;32.90;18.70;;;;;;;7.98;72.48;99769.83;104713;1279;22602;-59
2022/09/08 04:18:34;;;;;;;36.80;18.80;;;;;;;8.18;72.30;99770.06;104909;1280;24534;-60
2022/09/08 04:21:02;;;;;;;48.20;20.60;;;;;;;8.33;71.89;99772.44;104760;1279;22584;-59
2022/09/08 04:23:30;;;;;;;52.40;20.50;;;;;;;8.43;71.53;99775.33;104560;1282;22617;-59
2022/09/08 04:26:09;;;;;;;39.90;18.70;;;;;;;8.52;71.42;99779.98;104526;1282;24249;-60
2022/09/08 04:28:42;;;;;;;51.90;21.70;;;;;;;8.62;71.10;99778.13;105604;1269;22658;-60
2022/09/08 04:31:13;;;;;;;61.30;20.10;;;;;;;8.69;70.98;99779.52;106531;1282;22671;-87
2022/09/08 04:33:43;;;;;;;55.10;22.10;;;;;;;8.81;70.89;99786.42;106944;1281;22900;-88
2022/09/08 04:36:15;;;;;;;50.10;20.50;;;;;;;9.00;70.99;99782.73;106434;1282;24288;-89
2022/09/08 04:38:57;;;;;;;48.70;20.80;;;;;;;9.28;70.45;99788.11;106558;1282;22625;-90
2022/09/08 04:41:28;;;;;;;39.40;19.60;;;;;;;9.52;69.92;99784.09;106808;1282;22572;-89
2022/09/08 04:44:02;;;;;;;45.50;22.10;;;;;;;9.78;69.13;99779.49;107002;1282;22632;-89
2022/09/08 04:46:31;;;;;;;46.20;23.70;;;;;;;10.09;68.52;99781.25;106989;1282;22576;-89
2022/09/08 04:48:58;;;;;;;45.40;23.00;;;;;;;10.36;67.51;99780.61;106761;1282;24804;-88
2022/09/08 04:51:26;;;;;;;46.40;25.00;;;;;;;10.59;66.58;99780.66;106701;1282;22585;-90
2022/09/08 04:53:55;;;;;;;56.30;29.70;;;;;;;10.77;65.86;99781.28;106593;1282;23349;-89
2022/09/08 04:56:25;;;;;;;64.10;31.60;;;;;;;10.89;65.36;99783.23;106987;1282;25553;-88
2022/09/08 05:01:55;;;;;;;53.90;30.20;;;;;;;11.12;64.78;99774.63;102191;1309;545507;-60
2022/09/08 05:04:22;;;;;;;;;;;;;;;11.19;64.45;99774.60;104567;1287;25271;-60
2022/09/08 05:06:49;;;;;;;53.30;28.40;;;;;;;11.25;64.10;99773.67;104475;1287;22856;-60
2022/09/08 05:09:16;;;;;;;54.30;25.40;;;;;;;11.33;63.73;99776.98;104337;1287;22595;-61
2022/09/08 05:11:42;;;;;;;;;;;;;;;11.41;63.38;99773.73;104342;1287;24535;-59
2022/09/08 05:14:09;;;;;;;38.40;22.20;;;;;;;11.49;63.20;99775.02;104292;1287;22568;-59
2022/09/08 05:16:36;;;;;;;44.30;21.00;;;;;;;11.58;62.85;99771.29;103489;1285;1441582;-59
2022/09/08 05:19:03;;;;;;;;;;;;;;;11.71;62.24;99773.76;104532;1287;23639;-59
2022/09/08 05:21:32;;;;;;;43.50;18.60;;;;;;;11.87;60.87;99774.03;104513;1284;26589;-60
2022/09/08 05:24:00;;;;;;;31.90;16.60;;;;;;;12.07;60.75;99770.04;108518;1283;22461;-61
2022/09/08 05:26:27;;;;;;;34.40;15.30;;;;;;;12.28;60.07;99774.02;108402;1284;22481;-60
2022/09/08 05:28:54;;;;;;;22.70;12.00;;;;;;;12.51;59.36;99774.77;108258;1287;22835;-60
2022/09/08 05:31:22;;;;;;;25.60;12.60;;;;;;;12.74;58.21;99778.45;108308;1286;22414;-60
2022/09/08 05:33:50;;;;;;;9.90;5.90;;;;;;;12.99;57.00;99775.38;108351;1286;22502;-60
2022/09/08 05:36:18;;;;;;;7.90;4.00;;;;;;;13.26;53.17;99775.88;108365;1286;22503;-60
2022/09/08 05:38:46;;;;;;;7.50;3.90;;;;;;;13.49;51.31;99773.11;108247;1286;22469;-60
2022/09/08 05:41:13;;;;;;;6.60;3.90;;;;;;;13.71;50.38;99775.65;108377;1285;22440;-60
2022/09/08 05:43:40;;;;;;;10.10;4.30;;;;;;;13.88;50.01;99769.92;108292;1287;22472;-61
2022/09/08 05:46:07;;;;;;;11.80;3.90;;;;;;;14.03;49.18;99770.02;108316;1286;23172;-61
2022/09/08 05:48:34;;;;;;;9.90;4.20;;;;;;;14.16;48.28;99764.96;108338;1287;22454;-61
2022/09/08 05:51:02;;;;;;;8.10;4.10;;;;;;;14.27;47.80;99767.70;108618;1283;22942;-61
2022/09/08 05:53:29;;;;;;;8.90;3.70;;;;;;;14.37;47.28;99767.38;108590;1283;22942;-61
2022/09/08 05:56:00;;;;;;;11.20;3.60;;;;;;;14.47;46.92;99764.52;108593;1283;22493;-61
2022/09/08 05:58:27;;;;;;;7.60;3.90;;;;;;;14.56;46.77;99763.61;108575;1283;23183;-60
2022/09/08 06:01:02;;;;;;;6.90;3.60;;;;;;;14.64;46.39;99764.73;108663;1283;22470;-61
2022/09/08 06:03:29;;;;;;;11.30;3.10;;;;;;;14.73;45.85;99767.73;108599;1284;22473;-61
2022/09/08 06:05:56;;;;;;;8.00;3.60;;;;;;;14.80;45.74;99768.92;108661;1283;23698;-61
2022/09/08 06:08:23;;;;;;;8.60;3.00;;;;;;;14.88;45.63;99767.34;108399;1283;23168;-61
2022/09/08 06:10:52;;;;;;;6.70;3.40;;;;;;;14.95;45.54;99768.77;108571;1283;22483;-61
2022/09/08 06:13:21;;;;;;;4.60;2.40;;;;;;;15.02;44.68;99769.38;108508;1284;22461;-61
2022/09/08 06:15:48;;;;;;;6.50;3.40;;;;;;;15.08;44.51;99774.46;108683;1282;22598;-61
2022/09/08 06:18:18;;;;;;;5.70;2.90;;;;;;;15.13;44.38;99772.89;109126;1277;23372;-61
2022/09/08 06:20:45;;;;;;;6.80;3.30;;;;;;;15.21;44.22;99771.48;109209;1277;23570;-60
2022/09/08 06:23:12;;;;;;;9.40;3.10;;;;;;;15.29;44.08;99771.17;109161;1275;24290;-60
2022/09/08 06:25:43;;;;;;;6.70;2.80;;;;;;;15.36;43.95;99769.27;109034;1277;23306;-61
2022/09/08 06:28:40;;;;;;;10.70;3.60;;;;;;;15.43;43.44;99771.59;109218;1277;22937;-61
2022/09/08 06:31:07;;;;;;;6.00;2.60;;;;;;;15.53;42.71;99776.59;109009;1277;23209;-61
2022/09/08 06:33:38;;;;;;;6.80;3.10;;;;;;;15.60;42.84;99777.17;109047;1277;22486;-61
2022/09/08 06:36:17;;;;;;;5.60;3.00;;;;;;;15.68;42.82;99778.83;109078;1277;22568;-62
2022/09/08 06:38:50;;;;;;;7.10;2.60;;;;;;;15.77;42.31;99784.73;109050;1277;23090;-61
2022/09/08 06:41:22;;;;;;;5.40;3.60;;;;;;;15.83;42.39;99782.13;109083;1277;22524;-61
2022/09/08 06:43:50;;;;;;;6.10;2.80;;;;;;;15.88;42.32;99788.67;109140;1277;22433;-61
2022/09/08 06:46:28;;;;;;;6.00;3.50;;;;;;;15.93;42.07;99788.91;109064;1277;23244;-62
2022/09/08 06:48:55;;;;;;;7.50;3.90;;;;;;;15.96;41.98;99794.23;109314;1274;22393;-62
2022/09/08 06:51:21;;;;;;;8.30;3.60;;;;;;;15.98;41.97;99793.94;109114;1274;22469;-62
2022/09/08 06:54:01;;;;;;;11.20;3.90;;;;;;;15.99;42.25;99796.68;109433;1274;22447;-59
2022/09/08 06:56:39;;;;;;;11.20;4.60;;;;;;;16.00;42.65;99798.37;109343;1274;22446;-61
2022/09/08 06:59:26;;;;;;;;;;;;;;;16.06;42.10;99798.75;109297;1274;22529;-61
2022/09/08 07:02:30;;;;;;;14.20;4.10;;;;;;;16.09;42.13;99800.22;109475;1274;22491;-61
2022/09/08 07:05:00;;;;;;;11.10;4.20;;;;;;;16.13;41.56;99801.52;109356;1274;22448;-61
2022/09/08 07:07:31;;;;;;;24.50;4.70;;;;;;;16.17;41.25;99800.69;109512;1274;22534;-62
2022/09/08 07:10:03;;;;;;;16.10;4.90;;;;;;;16.21;41.63;99803.58;109475;1272;22455;-62
2022/09/08 07:12:38;;;;;;;10.50;5.10;;;;;;;16.25;41.80;99806.90;109456;1274;23332;-62
2022/09/08 07:15:08;;;;;;;13.40;4.30;;;;;;;16.29;42.07;99808.69;109460;1274;22296;-61
2022/09/08 07:17:45;;;;;;;9.20;4.70;;;;;;;16.34;42.14;99810.88;109494;1274;22489;-61
2022/09/08 07:20:12;;;;;;;6.50;4.10;;;;;;;16.38;42.06;99811.41;109504;1274;22550;-62
2022/09/08 07:22:42;;;;;;;9.50;4.40;;;;;;;16.39;41.75;99809.41;109423;1274;23168;-62
2022/09/08 07:25:30;;;;;;;8.10;4.20;;;;;;;16.41;41.78;99810.17;109435;1274;22471;-62
2022/09/08 07:28:00;;;;;;;9.20;4.20;;;;;;;16.43;41.63;99812.69;109446;1274;22434;-62
2022/09/08 07:30:26;;;;;;;11.00;4.20;;;;;;;16.45;41.36;99816.00;109290;1275;22439;-62
2022/09/08 07:33:01;;;;;;;7.20;4.20;;;;;;;16.47;41.11;99813.61;109344;1274;22447;-62
2022/09/08 07:35:53;;;;;;;6.20;3.60;;;;;;;16.46;41.57;99815.88;109379;1274;23204;-60
2022/09/08 07:38:36;;;;;;;6.90;3.50;;;;;;;16.46;41.52;99814.83;109419;1274;23427;-60
2022/09/08 07:41:03;;;;;;;5.70;3.20;;;;;;;16.51;41.19;99812.88;109314;1275;22480;-61
2022/09/08 07:43:30;;;;;;;7.50;3.40;;;;;;;16.58;40.61;99816.00;109347;1274;22338;-63
2022/09/08 07:46:03;;;;;;;6.00;3.20;;;;;;;16.64;40.36;99817.77;109493;1274;23430;-61
2022/09/08 07:48:42;;;;;;;8.30;3.50;;;;;;;16.69;40.03;99819.83;108920;1274;137878;-61
2022/09/08 07:51:12;;;;;;;5.60;3.80;;;;;;;16.71;40.22;99823.83;109349;1274;22535;-61
2022/09/08 07:54:00;;;;;;;6.60;2.90;;;;;;;16.73;40.53;99824.46;109390;1274;22334;-61
2022/09/08 07:56:58;;;;;;;6.00;2.90;;;;;;;16.76;39.71;99821.11;109214;1274;22533;-61
2022/09/08 08:00:07;;;;;;;6.30;2.50;;;;;;;16.78;39.57;99821.64;108561;1280;22527;-61
2022/09/08 08:03:07;;;;;;;6.10;3.00;;;;;;;16.79;38.46;99819.44;108652;1281;23517;-61
2022/09/08 08:05:44;;;;;;;5.80;2.50;;;;;;;16.80;38.58;99821.73;108555;1281;23370;-62
2022/09/08 08:08:25;;;;;;;12.80;2.90;;;;;;;16.82;38.36;99815.33;108657;1281;22450;-61
2022/09/08 08:11:12;;;;;;;9.70;2.70;;;;;;;16.86;37.98;99815.90;108652;1281;22709;-62
2022/09/08 08:14:09;;;;;;;8.00;2.60;;;;;;;16.92;37.76;99813.02;108408;1282;22535;-63
2022/09/08 08:16:56;;;;;;;17.50;2.20;;;;;;;16.95;37.78;99811.11;108477;1282;22432;-61
2022/09/08 08:19:52;;;;;;;;;;;;;;;16.98;37.58;99809.66;108644;1281;22508;-61
2022/09/08 08:22:47;;;;;;;7.90;2.70;;;;;;;17.03;37.43;99811.58;107954;1287;22559;-61
2022/09/08 08:25:13;;;;;;;10.40;3.80;;;;;;;17.06;37.53;99812.41;108118;1287;22588;-61
2022/09/08 08:27:46;;;;;;;6.20;3.30;;;;;;;17.08;38.45;99814.54;108036;1287;23092;-62
2022/09/08 08:30:20;;;;;;;8.20;4.60;;;;;;;17.09;38.41;99812.27;108115;1287;22563;-61
2022/09/08 08:33:08;;;;;;;7.10;3.30;;;;;;;17.12;38.55;99815.88;108109;1286;22462;-61
2022/09/08 08:35:39;;;;;;;9.50;3.60;;;;;;;17.18;38.19;99816.71;108086;1282;22473;-61
2022/09/08 08:38:05;;;;;;;5.20;3.70;;;;;;;17.19;37.76;99816.27;108479;1282;22483;-61
2022/09/08 08:40:53;;;;;;;7.70;3.80;;;;;;;17.17;37.73;99813.60;108492;1282;22500;-62
2022/09/08 08:43:43;;;;;;;7.60;4.20;;;;;;;17.13;37.87;99810.91;108488;1282;22474;-62
2022/09/08 08:46:28;;;;;;;4.90;3.00;;;;;;;17.15;37.44;99812.77;108449;1283;22445;-60
2022/09/08 08:49:16;;;;;;;5.90;3.30;;;;;;;17.17;37.52;99813.27;108448;1283;22439;-60
2022/09/08 08:52:02;;;;;;;9.20;3.00;;;;;;;17.20;37.57;99812.23;108444;1282;22533;-61
2022/09/08 08:54:46;;;;;;;7.30;2.80;;;;;;;17.24;37.17;99807.89;108351;1282;22504;-60
2022/09/08 08:57:32;;;;;;;5.70;3.20;;;;;;;17.25;36.82;99809.98;108158;1282;138780;-61
2022/09/08 09:00:14;;;;;;;6.90;2.70;;;;;;;17.25;36.87;99806.73;109273;1274;22473;-61
2022/09/08 09:03:29;;;;;;;4.50;2.90;;;;;;;17.30;36.61;99810.20;109334;1274;22466;-61
2022/09/08 09:06:23;;;;;;;6.70;3.40;;;;;;;17.35;36.56;99806.32;108647;1280;22611;-60
2022/09/08 09:09:11;;;;;;;5.30;3.20;;;;;;;17.36;36.23;99805.98;108573;1280;22454;-61
2022/09/08 09:11:59;;;;;;;5.50;3.00;;;;;;;17.35;36.38;99805.77;108376;1283;23212;-61
2022/09/08 09:14:27;;;;;;;3.90;3.00;;;;;;;17.37;36.50;99803.21;108741;1280;22556;-61
2022/09/08 09:17:35;;;;;;;5.00;2.80;;;;;;;17.43;35.58;99796.54;108420;1282;137226;-61
2022/09/08 09:20:11;;;;;;;10.60;3.00;;;;;;;17.51;35.57;99798.17;108539;1281;22443;-61
2022/09/08 09:22:50;;;;;;;7.80;3.40;;;;;;;17.59;35.84;99794.03;108541;1280;137932;-61
2022/09/08 09:25:16;;;;;;;6.30;3.80;;;;;;;17.63;35.69;99794.91;108919;1278;22582;-61
2022/09/08 09:28:06;;;;;;;13.20;6.00;;;;;;;17.65;35.96;99791.27;108577;1281;137547;-61
2022/09/08 09:30:44;;;;;;;5.70;3.50;;;;;;;17.71;35.86;99791.87;108679;1280;22414;-61
2022/09/08 09:33:14;;;;;;;5.70;3.30;;;;;;;17.74;36.03;99792.64;108655;1280;138136;-62
2022/09/08 09:36:04;;;;;;;8.90;3.90;;;;;;;17.75;35.71;99794.64;108880;1280;23094;-61
2022/09/08 09:38:53;;;;;;;7.40;4.30;;;;;;;17.73;35.54;99795.30;108971;1280;23661;-61
2022/09/08 09:41:37;;;;;;;8.80;4.10;;;;;;;17.68;36.07;99791.30;108813;1280;137749;-61
2022/09/08 09:44:24;;;;;;;5.30;3.70;;;;;;;17.70;35.88;99799.60;109421;1274;22414;-61
2022/09/08 09:47:02;;;;;;;7.00;3.40;;;;;;;17.74;36.10;99796.27;109157;1274;139515;-61
2022/09/08 09:49:34;;;;;;;9.90;5.10;;;;;;;17.80;36.80;99795.91;109374;1274;22510;-62
2022/09/08 09:52:29;;;;;;;9.00;4.40;;;;;;;17.85;35.97;99796.48;109335;1274;137550;-61
2022/09/08 09:54:59;;;;;;;10.30;4.90;;;;;;;17.89;36.28;99801.22;109409;1275;22427;-62
2022/09/08 09:57:41;;;;;;;16.10;7.10;;;;;;;17.92;36.52;99803.36;109322;1274;138755;-62
2022/09/08 10:00:12;;;;;;;12.70;6.80;;;;;;;17.97;36.48;99797.84;109432;1274;23240;-62
2022/09/08 10:03:05;;;;;;;9.50;6.40;;;;;;;18.01;36.76;99801.71;109397;1274;22443;-61
2022/09/08 10:05:35;;;;;;;9.70;6.10;;;;;;;18.06;36.64;99804.14;109338;1274;22487;-61
2022/09/08 10:08:23;;;;;;;12.20;4.90;;;;;;;18.10;36.09;99806.73;109422;1274;22454;-61
2022/09/08 10:10:53;;;;;;;12.40;4.30;;;;;;;18.13;35.21;99810.83;109234;1274;137757;-62
2022/09/08 10:13:38;;;;;;;7.30;4.20;;;;;;;18.16;34.34;99816.36;109424;1274;23215;-64
2022/09/08 10:16:37;;;;;;;10.00;3.40;;;;;;;18.18;34.12;99817.09;109332;1274;139179;-62
2022/09/08 10:19:34;;;;;;;6.00;4.00;;;;;;;18.17;33.71;99819.71;109275;1276;24364;-62
2022/09/08 10:22:01;;;;;;;10.60;4.00;;;;;;;18.15;34.23;99811.89;109290;1274;138198;-60
2022/09/08 10:24:56;;;;;;;7.70;3.50;;;;;;;18.16;34.49;99817.67;109465;1274;23397;-60
2022/09/08 10:27:41;;;;;;;4.90;3.40;;;;;;;18.23;33.98;99812.20;109307;1274;138033;-60
2022/09/08 10:30:32;;;;;;;5.40;4.00;;;;;;;18.27;34.02;99815.61;109423;1274;23805;-61
2022/09/08 10:33:33;;;;;;;8.90;4.30;;;;;;;18.33;33.86;99819.88;109177;1276;22405;-60
2022/09/08 10:36:09;;;;;;;5.90;3.90;;;;;;;18.35;33.64;99819.33;109388;1274;22579;-60
2022/09/08 10:39:13;;;;;;;8.10;5.10;;;;;;;18.37;34.08;99818.35;109423;1272;23675;-60
2022/09/08 10:41:55;;;;;;;13.80;4.90;;;;;;;18.40;33.94;99815.44;109343;1274;23515;-60
2022/09/08 10:44:41;;;;;;;9.40;4.80;;;;;;;18.43;33.84;99818.31;109394;1274;22449;-60
2022/09/08 10:47:41;;;;;;;8.90;4.10;;;;;;;18.47;33.44;99812.44;109207;1274;138890;-61
2022/09/08 10:50:19;;;;;;;10.30;6.10;;;;;;;18.48;33.22;99810.70;109395;1274;22471;-60
2022/09/08 10:53:17;;;;;;;10.10;6.10;;;;;;;18.49;33.36;99813.89;109192;1274;139370;-61
2022/09/08 10:55:56;;;;;;;17.20;7.60;;;;;;;18.51;33.17;99815.29;109392;1274;22584;-61
2022/09/08 10:59:01;;;;;;;10.70;5.70;;;;;;;18.53;33.55;99815.26;109174;1276;137601;-60
2022/09/08 11:01:46;;;;;;;11.60;6.20;;;;;;;18.59;33.40;99814.96;109067;1276;22581;-60
2022/09/08 11:04:28;;;;;;;10.00;6.10;;;;;;;18.64;33.40;99812.93;109322;1274;137531;-60
2022/09/08 11:07:23;;;;;;;10.30;6.10;;;;;;;18.67;32.83;99809.41;109446;1274;23438;-61
2022/09/08 11:10:02;;;;;;;10.00;6.60;;;;;;;18.69;33.09;99804.13;109278;1274;137949;-61
2022/09/08 11:13:04;;;;;;;11.30;5.10;;;;;;;18.69;32.92;99801.65;109317;1274;22445;-61
2022/09/08 11:15:33;;;;;;;9.60;5.10;;;;;;;18.68;32.82;99796.41;109173;1275;138628;-61
2022/09/08 11:18:11;;;;;;;12.60;5.40;;;;;;;18.69;32.47;99795.23;109458;1274;22767;-61
2022/09/08 11:20:55;;;;;;;9.40;6.00;;;;;;;18.73;32.05;99799.83;109327;1274;22566;-61
2022/09/08 11:23:34;;;;;;;8.60;5.80;;;;;;;18.72;31.90;99797.02;109154;1276;137699;-61
2022/09/08 11:26:01;;;;;;;11.20;5.80;;;;;;;18.73;32.11;99798.66;109357;1274;23301;-61
2022/09/08 11:29:15;;;;;;;10.10;5.90;;;;;;;18.74;32.35;99802.61;109395;1274;137829;-61
2022/09/08 11:32:04;;;;;;;9.30;5.60;;;;;;;18.74;32.07;99805.60;108917;1280;22447;-61
2022/09/08 11:34:33;;;;;;;9.00;5.00;;;;;;;18.74;32.28;99798.86;108796;1280;139825;-61
2022/09/08 11:37:22;;;;;;;12.90;4.60;;;;;;;18.74;32.01;99801.17;108829;1280;23041;-61
2022/09/08 11:39:52;;;;;;;15.20;5.10;;;;;;;18.75;31.92;99799.08;108054;1286;138872;-61
2022/09/08 11:42:28;;;;;;;9.20;5.50;;;;;;;18.75;31.96;99800.50;108189;1286;22555;-62
2022/09/08 11:45:19;;;;;;;12.50;4.70;;;;;;;18.76;31.83;99799.77;108066;1286;22569;-62
2022/09/08 11:47:49;;;;;;;13.80;4.50;;;;;;;18.71;31.59;99796.76;107970;1286;22507;-61
2022/09/08 11:50:35;;;;;;;7.60;4.00;;;;;;;18.66;31.66;99794.23;108247;1286;22449;-62
2022/09/08 11:53:52;;;;;;;8.20;4.70;;;;;;;18.68;31.86;99792.51;108078;1285;137988;-62
2022/09/08 11:56:58;;;;;;;8.90;5.10;;;;;;;18.75;31.84;99790.72;107621;1291;22551;-62
2022/09/08 11:59:45;;;;;;;5.80;4.00;;;;;;;18.81;31.51;99791.36;107362;1292;137407;-61
2022/09/08 12:02:49;;;;;;;9.00;5.00;;;;;;;18.84;31.16;99786.06;107573;1288;23002;-61
2022/09/08 12:05:52;;;;;;;13.70;5.00;;;;;;;18.83;31.06;99782.11;107781;1288;137587;-61
2022/09/08 12:08:58;;;;;;;6.50;4.60;;;;;;;18.83;31.25;99783.45;107922;1288;22592;-60
2022/09/08 12:11:58;;;;;;;11.80;5.90;;;;;;;18.83;31.39;99785.98;107779;1288;139475;-60
2022/09/08 12:14:34;;;;;;;11.00;6.40;;;;;;;18.81;31.85;99788.55;107931;1288;23100;-61
2022/09/08 12:17:11;;;;;;;14.80;7.80;;;;;;;18.83;31.93;99787.48;107993;1280;137944;-60
2022/09/08 12:20:16;;;;;;;17.00;8.70;;;;;;;18.84;32.46;99793.41;108542;1280;22524;-61